Time,TemperatureF,DewpointF,PressureIn,WindDirection,WindDirectionDegrees,WindSpeedMPH,WindSpeedGustMPH,Humidity,HourlyPrecipIn,Conditions,Clouds,dailyrainin,SoftwareType,DateUTC
2013-01-09 00:14:00,47.9,41.0,30.39,ENE,63,0.0,2.6,77,0.00,,OVC050,0.00,VWS V14.01,2013-01-09 05:14:00,
2013-01-09 00:29:00,47.9,41.0,30.39,ENE,63,0.0,2.6,77,0.00,,OVC050,0.00,VWS V14.01,2013-01-09 05:29:00,
2013-01-09 00:43:00,48.1,40.9,30.39,ENE,63,1.3,1.3,76,0.00,,OVC050,0.00,VWS V14.01,2013-01-09 05:43:00,
2013-01-09 00:59:00,48.3,41.4,30.40,ENE,63,0.0,1.3,77,0.00,,OVC050,0.00,VWS V14.01,2013-01-09 05:59:00,
2013-01-09 01:13:00,48.4,41.5,30.40,ENE,63,0.0,1.3,77,0.00,,OVC026,0.00,VWS V14.01,2013-01-09 06:13:00,
2013-01-09 01:28:00,48.4,41.9,30.40,ENE,63,0.0,0.0,78,0.00,,OVC026,0.00,VWS V14.01,2013-01-09 06:28:00,
2013-01-09 01:43:00,48.4,41.9,30.40,ENE,63,0.0,1.3,78,0.00,,OVC026,0.00,VWS V14.01,2013-01-09 06:43:00,
2013-01-09 01:59:00,48.4,41.9,30.40,ENE,63,0.0,0.0,78,0.00,,OVC026,0.00,VWS V14.01,2013-01-09 06:59:00,
2013-01-09 02:13:00,48.5,42.0,30.40,ENE,63,0.0,2.6,78,0.00,,OVC024,0.00,VWS V14.01,2013-01-09 07:13:00,
2013-01-09 02:29:00,48.8,41.9,30.40,ENE,63,0.0,1.3,77,0.00,,OVC024,0.00,VWS V14.01,2013-01-09 07:29:00,
2013-01-09 02:43:00,48.7,42.2,30.40,ENE,63,0.0,1.3,78,0.00,,OVC024,0.00,VWS V14.01,2013-01-09 07:43:00,
2013-01-09 02:59:00,48.7,42.5,30.40,ENE,63,0.0,0.0,79,0.00,,OVC024,0.00,VWS V14.01,2013-01-09 07:59:00,
2013-01-09 03:13:00,48.9,42.3,30.39,ENE,63,0.0,1.3,78,0.00,,OVC026,0.00,VWS V14.01,2013-01-09 08:13:00,
2013-01-09 03:28:00,48.7,42.5,30.39,ENE,63,0.0,1.3,79,0.00,,OVC026,0.00,VWS V14.01,2013-01-09 08:28:00,
2013-01-09 03:43:00,48.5,42.6,30.39,ENE,63,0.0,1.3,80,0.00,,OVC026,0.00,VWS V14.01,2013-01-09 08:43:00,
2013-01-09 03:58:00,48.4,42.5,30.38,ENE,63,0.0,0.0,80,0.00,,OVC026,0.00,VWS V14.01,2013-01-09 08:58:00,
2013-01-09 04:13:00,47.8,42.3,30.38,ENE,63,0.0,2.6,81,0.00,,OVC026,0.00,VWS V14.01,2013-01-09 09:13:00,
2013-01-09 04:29:00,47.7,42.5,30.38,ENE,63,0.0,1.3,82,0.00,,OVC026,0.00,VWS V14.01,2013-01-09 09:29:00,
2013-01-09 04:43:00,47.9,42.7,30.38,ENE,63,0.0,0.0,82,0.00,,OVC026,0.00,VWS V14.01,2013-01-09 09:43:00,
2013-01-09 04:58:00,48.2,43.0,30.38,ENE,63,0.0,0.0,82,0.00,,OVC026,0.00,VWS V14.01,2013-01-09 09:58:00,
2013-01-09 05:14:00,48.5,43.3,30.38,ENE,63,0.0,0.0,82,0.00,,OVC024,0.00,VWS V14.01,2013-01-09 10:14:00,
2013-01-09 05:28:00,48.7,43.5,30.37,ENE,63,0.0,0.0,82,0.00,,OVC024,0.00,VWS V14.01,2013-01-09 10:28:00,
2013-01-09 05:44:00,48.7,43.8,30.38,ENE,63,0.0,0.0,83,0.00,,OVC024,0.00,VWS V14.01,2013-01-09 10:44:00,
2013-01-09 05:58:00,48.7,43.8,30.38,ENE,63,0.0,1.3,83,0.00,,OVC024,0.00,VWS V14.01,2013-01-09 10:58:00,
2013-01-09 06:14:00,48.7,43.8,30.38,ENE,63,0.0,1.3,83,0.00,,OVC029,0.00,VWS V14.01,2013-01-09 11:14:00,
2013-01-09 06:28:00,48.8,43.9,30.38,ENE,63,0.0,0.0,83,0.00,,OVC031,0.00,VWS V14.01,2013-01-09 11:28:00,
2013-01-09 06:43:00,48.8,43.9,30.38,ENE,63,0.0,1.3,83,0.00,,OVC031,0.00,VWS V14.01,2013-01-09 11:43:00,
2013-01-09 06:58:00,48.9,44.0,30.39,ENE,63,0.0,0.0,83,0.00,,OVC031,0.00,VWS V14.01,2013-01-09 11:58:00,
2013-01-09 07:13:00,49.1,44.2,30.39,ENE,63,0.0,0.0,83,0.00,,OVC025,0.00,VWS V14.01,2013-01-09 12:13:00,
2013-01-09 07:28:00,49.1,44.2,30.40,ENE,63,0.0,0.0,83,0.00,,OVC025,0.00,VWS V14.01,2013-01-09 12:28:00,
2013-01-09 07:43:00,49.2,44.6,30.41,ENE,63,0.0,0.0,84,0.00,,OVC044,0.00,VWS V14.01,2013-01-09 12:43:00,
2013-01-09 07:58:00,49.3,44.7,30.41,ENE,63,0.0,0.0,84,0.00,,OVC044,0.00,VWS V14.01,2013-01-09 12:58:00,
2013-01-09 08:13:00,49.4,44.5,30.41,ENE,63,0.0,0.0,83,0.00,,OVC044,0.00,VWS V14.01,2013-01-09 13:13:00,
2013-01-09 08:28:00,49.6,44.7,30.42,ENE,63,0.0,0.0,83,0.00,,OVC044,0.00,VWS V14.01,2013-01-09 13:28:00,
2013-01-09 08:43:00,50.1,44.8,30.42,ENE,63,0.0,0.0,82,0.00,,OVC044,0.00,VWS V14.01,2013-01-09 13:43:00,
2013-01-09 08:58:00,50.9,45.3,30.43,ENE,63,0.0,0.0,81,0.00,,OVC044,0.00,VWS V14.01,2013-01-09 13:58:00,
2013-01-09 09:13:00,51.8,46.2,30.43,ENE,63,0.0,1.3,81,0.00,,OVC048,0.00,VWS V14.01,2013-01-09 14:13:00,
2013-01-09 09:28:00,52.9,46.2,30.43,ENE,63,1.3,2.6,78,0.00,,OVC048,0.00,VWS V14.01,2013-01-09 14:28:00,
2013-01-09 09:43:00,54.2,46.8,30.44,ENE,63,1.3,3.9,76,0.00,,OVC048,0.00,VWS V14.01,2013-01-09 14:43:00,
2013-01-09 09:58:00,55.7,47.9,30.44,ENE,63,1.3,2.6,75,0.00,,OVC048,0.00,VWS V14.01,2013-01-09 14:58:00,
2013-01-09 10:13:00,58.8,50.2,30.44,ENE,76,0.0,3.9,73,0.00,,OVC048,0.00,VWS V14.01,2013-01-09 15:13:00,
2013-01-09 10:28:00,60.1,51.4,30.44,SE,146,1.3,3.9,73,0.00,,OVC048,0.00,VWS V14.01,2013-01-09 15:28:00,
2013-01-09 10:43:00,61.4,52.3,30.43,SW,225,1.3,6.5,72,0.00,,OVC048,0.00,VWS V14.01,2013-01-09 15:43:00,
2013-01-09 10:58:00,61.7,54.1,30.42,SSE,162,0.0,7.8,76,0.00,,OVC048,0.00,VWS V14.01,2013-01-09 15:58:00,
2013-01-09 11:13:00,62.1,54.1,30.42,WNW,287,1.3,5.2,75,0.00,,CLR,0.00,VWS V14.01,2013-01-09 16:13:00,
2013-01-09 11:28:00,61.8,53.8,30.42,SW,229,2.6,6.5,75,0.00,,CLR,0.00,VWS V14.01,2013-01-09 16:28:00,
2013-01-09 11:43:00,61.8,53.8,30.42,WSW,239,1.3,7.8,75,0.00,,CLR,0.00,VWS V14.01,2013-01-09 16:43:00,
2013-01-09 11:58:00,61.8,53.8,30.41,South,190,3.9,6.5,75,0.00,,CLR,0.00,VWS V14.01,2013-01-09 16:58:00,
2013-01-09 12:13:00,61.9,53.9,30.40,WSW,246,5.2,6.5,75,0.00,,CLR,0.00,VWS V14.01,2013-01-09 17:13:00,
2013-01-09 12:28:00,62.0,53.6,30.40,SSW,200,3.9,7.8,74,0.00,,CLR,0.00,VWS V14.01,2013-01-09 17:28:00,
2013-01-09 12:43:00,62.3,53.5,30.39,SW,223,0.0,5.2,73,0.00,,CLR,0.00,VWS V14.01,2013-01-09 17:43:00,
2013-01-09 12:58:00,63.0,53.8,30.38,SW,223,1.3,3.9,72,0.00,,CLR,0.00,VWS V14.01,2013-01-09 17:58:00,
2013-01-09 13:13:00,63.1,53.6,30.37,SW,221,3.9,5.2,71,0.00,,CLR,0.00,VWS V14.01,2013-01-09 18:13:00,
2013-01-09 13:28:00,62.9,53.8,30.37,SW,224,1.3,5.2,72,0.00,,CLR,0.00,VWS V14.01,2013-01-09 18:28:00,
2013-01-09 13:43:00,63.1,53.9,30.37,SW,224,0.0,3.9,72,0.00,,CLR,0.00,VWS V14.01,2013-01-09 18:43:00,
2013-01-09 13:58:00,63.4,54.2,30.37,SW,224,0.0,2.6,72,0.00,,CLR,0.00,VWS V14.01,2013-01-09 18:58:00,
2013-01-09 14:13:00,63.1,53.9,30.36,SW,224,0.0,2.6,72,0.00,,CLR,0.00,VWS V14.01,2013-01-09 19:13:00,
2013-01-09 14:29:00,62.8,54.4,30.37,SW,224,1.3,3.9,74,0.00,,CLR,0.00,VWS V14.01,2013-01-09 19:29:00,
2013-01-09 14:43:00,62.6,54.2,30.37,SW,224,0.0,2.6,74,0.00,,CLR,0.00,VWS V14.01,2013-01-09 19:43:00,
2013-01-09 14:58:00,62.5,54.8,30.36,SW,224,0.0,1.3,76,0.00,,CLR,0.00,VWS V14.01,2013-01-09 19:58:00,
2013-01-09 15:13:00,62.5,55.2,30.36,SW,224,0.0,0.0,77,0.00,,CLR,0.00,VWS V14.01,2013-01-09 20:13:00,
2013-01-09 15:28:00,62.8,54.8,30.36,SW,224,0.0,1.3,75,0.00,,CLR,0.00,VWS V14.01,2013-01-09 20:28:00,
2013-01-09 15:43:00,63.1,55.1,30.36,SW,224,0.0,0.0,75,0.00,,CLR,0.00,VWS V14.01,2013-01-09 20:43:00,
2013-01-09 15:58:00,63.0,55.3,30.37,SW,224,0.0,1.3,76,0.00,,CLR,0.00,VWS V14.01,2013-01-09 20:58:00,
2013-01-09 16:13:00,62.5,55.2,30.37,SW,224,0.0,0.0,77,0.00,,FEW120,0.00,VWS V14.01,2013-01-09 21:13:00,
2013-01-09 16:28:00,62.0,55.1,30.37,SW,224,0.0,0.0,78,0.00,,FEW120,0.00,VWS V14.01,2013-01-09 21:28:00,
2013-01-09 16:43:00,61.5,54.9,30.37,SW,224,0.0,0.0,79,0.00,,FEW120,0.00,VWS V14.01,2013-01-09 21:43:00,
2013-01-09 16:58:00,61.0,54.8,30.37,SW,224,0.0,0.0,80,0.00,,FEW120,0.00,VWS V14.01,2013-01-09 21:58:00,
2013-01-09 17:13:00,60.4,54.5,30.37,SW,224,0.0,1.3,81,0.00,,CLR,0.00,VWS V14.01,2013-01-09 22:13:00,
2013-01-09 17:28:00,60.2,54.4,30.37,SW,224,0.0,2.6,81,0.00,,CLR,0.00,VWS V14.01,2013-01-09 22:28:00,
2013-01-09 17:43:00,59.8,54.3,30.38,SW,224,0.0,0.0,82,0.00,,CLR,0.00,VWS V14.01,2013-01-09 22:43:00,
2013-01-09 17:59:00,59.2,53.7,30.38,SW,224,0.0,0.0,82,0.00,,CLR,0.00,VWS V14.01,2013-01-09 22:59:00,
2013-01-09 18:13:00,58.5,53.4,30.38,SW,224,0.0,1.3,83,0.00,,CLR,0.00,VWS V14.01,2013-01-09 23:13:00,
2013-01-09 18:28:00,57.9,53.1,30.39,SW,224,0.0,1.3,84,0.00,,CLR,0.00,VWS V14.01,2013-01-09 23:28:00,
2013-01-09 18:43:00,57.8,53.0,30.39,SW,224,0.0,1.3,84,0.00,,CLR,0.00,VWS V14.01,2013-01-09 23:43:00,
2013-01-09 18:59:00,57.6,52.8,30.38,SW,224,0.0,2.6,84,0.00,,CLR,0.00,VWS V14.01,2013-01-09 23:59:00,
2013-01-09 19:13:00,57.5,52.7,30.37,SW,224,0.0,1.3,84,0.00,,FEW110,0.00,VWS V14.01,2013-01-10 00:13:00,
2013-01-09 19:28:00,57.6,52.8,30.36,SW,224,0.0,2.6,84,0.00,,FEW110,0.00,VWS V14.01,2013-01-10 00:28:00,
2013-01-09 19:43:00,57.9,52.8,30.36,SW,224,0.0,0.0,83,0.00,,FEW110,0.00,VWS V14.01,2013-01-10 00:43:00,
2013-01-09 19:58:00,57.3,52.5,30.37,SW,224,0.0,1.3,84,0.00,,FEW110,0.00,VWS V14.01,2013-01-10 00:58:00,
2013-01-09 20:13:00,56.8,52.3,30.37,SW,224,0.0,1.3,85,0.00,,FEW110,0.00,VWS V14.01,2013-01-10 01:13:00,
2013-01-09 20:28:00,56.6,52.2,30.37,SW,224,0.0,1.3,85,0.00,,FEW110,0.00,VWS V14.01,2013-01-10 01:28:00,
2013-01-09 20:43:00,56.5,52.0,30.38,SW,224,0.0,1.3,85,0.00,,FEW110,0.00,VWS V14.01,2013-01-10 01:43:00,
2013-01-09 20:58:00,56.2,51.8,30.38,SW,224,0.0,1.3,85,0.00,,FEW110,0.00,VWS V14.01,2013-01-10 01:58:00,
2013-01-09 21:13:00,55.6,51.2,30.38,SW,224,1.3,1.3,85,0.00,,CLR,0.00,VWS V14.01,2013-01-10 02:13:00,
2013-01-09 21:28:00,55.2,51.1,30.39,SW,224,2.6,2.6,86,0.00,,CLR,0.00,VWS V14.01,2013-01-10 02:28:00,
2013-01-09 21:43:00,55.4,51.6,30.40,SW,224,0.0,2.6,87,0.00,,CLR,0.00,VWS V14.01,2013-01-10 02:43:00,
2013-01-09 21:59:00,55.8,52.0,30.40,SW,224,0.0,1.3,87,0.00,,CLR,0.00,VWS V14.01,2013-01-10 02:59:00,
2013-01-09 22:13:00,55.6,51.5,30.41,SW,224,0.0,1.3,86,0.00,,SCT110,0.00,VWS V14.01,2013-01-10 03:13:00,
2013-01-09 22:28:00,55.4,51.3,30.40,SW,224,0.0,1.3,86,0.00,,SCT110,0.00,VWS V14.01,2013-01-10 03:28:00,
2013-01-09 22:43:00,54.9,51.1,30.42,SW,224,0.0,2.6,87,0.00,,SCT110,0.00,VWS V14.01,2013-01-10 03:43:00,
2013-01-09 22:59:00,54.9,51.1,30.42,SW,224,0.0,1.3,87,0.00,,SCT110,0.00,VWS V14.01,2013-01-10 03:59:00,
2013-01-09 23:13:00,54.9,51.1,30.42,SW,224,0.0,0.0,87,0.00,,FEW120,0.00,VWS V14.01,2013-01-10 04:13:00,
2013-01-09 23:28:00,54.5,50.7,30.42,SW,224,0.0,0.0,87,0.00,,FEW120,0.00,VWS V14.01,2013-01-10 04:28:00,
2013-01-09 23:43:00,54.2,50.4,30.42,SW,224,0.0,1.3,87,0.00,,FEW120,0.00,VWS V14.01,2013-01-10 04:43:00,
2013-01-09 23:59:00,54.0,50.5,30.41,SW,224,0.0,0.0,88,0.00,,FEW120,0.00,VWS V14.01,2013-01-10 04:59:00,